createdAt,value
2022-12-15T00:00:56.698Z,58.63
2022-12-15T00:03:48.788Z,50.50
2022-12-15T00:06:41.455Z,58.80
2022-12-15T00:09:31.829Z,57.40
2022-12-15T00:12:25.125Z,57.23
2022-12-15T00:15:15.490Z,53.33
2022-12-15T00:18:05.854Z,57.47
2022-12-15T00:20:57.520Z,57.37
2022-12-15T00:23:48.018Z,56.37
2022-12-15T00:26:38.305Z,58.73
2022-12-15T00:29:28.560Z,57.70
2022-12-15T00:32:18.691Z,62.60
2022-12-15T00:35:09.018Z,65.63
2022-12-15T00:38:00.913Z,59.83
2022-12-15T00:40:33.932Z,57.57
2022-12-15T00:43:11.957Z,60.37
2022-12-15T00:46:02.519Z,61.07
2022-12-15T00:48:35.488Z,58.47
2022-12-15T00:51:07.762Z,59.00
2022-12-15T00:53:59.918Z,60.50
2022-12-15T00:56:50.288Z,65.73
2022-12-15T00:59:40.179Z,61.80
2022-12-15T01:02:30.286Z,61.23
2022-12-15T01:05:20.884Z,56.53
2022-12-15T01:08:13.548Z,62.53
2022-12-15T01:11:05.241Z,61.43
2022-12-15T01:13:55.583Z,63.87
2022-12-15T01:16:48.719Z,58.90
2022-12-15T01:19:38.868Z,58.70
2022-12-15T01:22:14.324Z,61.63
2022-12-15T01:24:47.267Z,57.13
2022-12-15T01:27:21.438Z,53.77
2022-12-15T01:29:54.230Z,64.93
2022-12-15T01:32:27.631Z,59.70
2022-12-15T01:35:00.594Z,53.90
2022-12-15T01:37:33.740Z,55.97
2022-12-15T01:40:25.234Z,60.47
2022-12-15T01:42:59.517Z,59.17
2022-12-15T01:45:50.768Z,66.37
2022-12-15T01:48:26.197Z,58.80
2022-12-15T01:51:01.620Z,57.17
2022-12-15T01:53:36.137Z,57.33
2022-12-15T01:56:09.815Z,55.33
2022-12-15T01:58:48.558Z,50.37
2022-12-15T02:01:21.442Z,50.13
2022-12-15T02:03:54.467Z,50.70
2022-12-15T02:06:29.814Z,52.13
2022-12-15T02:09:02.588Z,55.90
2022-12-15T02:11:53.915Z,51.90
2022-12-15T02:14:33.990Z,54.80
2022-12-15T02:17:11.412Z,52.50
2022-12-15T02:19:54.736Z,56.50
2022-12-15T02:22:34.838Z,51.37
2022-12-15T02:25:17.558Z,53.80
2022-12-15T02:27:59.722Z,48.60
2022-12-15T02:31:12.508Z,57.50
2022-12-15T02:33:47.733Z,49.20
2022-12-15T02:36:26.961Z,53.90
2022-12-15T02:38:59.940Z,49.70
2022-12-15T02:41:35.185Z,56.40
2022-12-15T02:44:11.207Z,53.80
2022-12-15T02:46:55.832Z,43.23
2022-12-15T02:49:32.467Z,51.17
2022-12-15T02:52:13.278Z,47.23
2022-12-15T02:55:01.819Z,47.57
2022-12-15T02:57:39.478Z,49.70
2022-12-15T03:00:13.641Z,45.33
2022-12-15T03:02:49.907Z,43.90
2022-12-15T03:05:25.319Z,44.93
2022-12-15T03:07:58.559Z,50.43
2022-12-15T03:10:33.342Z,41.57
2022-12-15T03:13:06.552Z,47.93
2022-12-15T03:15:39.438Z,44.57
2022-12-15T03:18:13.547Z,45.67
2022-12-15T03:20:46.440Z,45.33
2022-12-15T03:23:19.432Z,47.20
2022-12-15T03:25:52.258Z,44.63
2022-12-15T03:28:25.061Z,45.60
2022-12-15T03:31:00.328Z,47.27
2022-12-15T03:33:35.302Z,42.50
2022-12-15T03:36:08.955Z,47.47
2022-12-15T03:38:41.706Z,49.47
2022-12-15T03:41:15.066Z,43.33
2022-12-15T03:43:49.694Z,41.57
2022-12-15T03:46:22.827Z,47.17
2022-12-15T03:48:59.233Z,46.70
2022-12-15T03:51:32.264Z,47.73
2022-12-15T03:54:07.438Z,44.00
2022-12-15T03:56:40.462Z,43.93
2022-12-15T03:59:18.147Z,51.27
2022-12-15T04:01:51.305Z,43.30
2022-12-15T04:04:25.489Z,45.47
2022-12-15T04:06:58.432Z,47.60
2022-12-15T04:09:34.444Z,46.30
2022-12-15T04:12:09.794Z,48.70
2022-12-15T04:14:42.737Z,46.33
2022-12-15T04:17:15.728Z,44.93
2022-12-15T04:20:07.734Z,41.73
2022-12-15T04:22:42.024Z,49.73
2022-12-15T04:25:35.199Z,46.93
2022-12-15T04:28:25.737Z,47.23
2022-12-15T04:31:16.853Z,44.57
2022-12-15T04:34:09.777Z,44.80
2022-12-15T04:37:05.752Z,44.53
2022-12-15T04:39:57.040Z,44.17
2022-12-15T04:42:48.239Z,43.63
2022-12-15T04:45:40.088Z,43.60
2022-12-15T04:48:30.385Z,43.43
2022-12-15T04:51:22.704Z,48.10
2022-12-15T04:54:15.652Z,45.97
2022-12-15T04:57:05.974Z,44.47
2022-12-15T04:59:56.178Z,42.67
2022-12-15T05:02:46.519Z,33.90
2022-12-15T05:05:39.965Z,41.57
2022-12-15T05:08:30.333Z,43.20
2022-12-15T05:11:21.884Z,40.53
2022-12-15T05:14:12.149Z,42.13
2022-12-15T05:17:02.347Z,46.23
2022-12-15T05:19:52.792Z,49.30
2022-12-15T05:22:43.044Z,46.67
2022-12-15T05:25:33.348Z,52.40
2022-12-15T05:28:28.229Z,49.57
2022-12-15T05:31:19.279Z,47.87
2022-12-15T05:33:52.098Z,40.90
2022-12-15T05:36:24.976Z,48.40
2022-12-15T05:38:59.373Z,52.60
2022-12-15T05:41:32.108Z,39.43
2022-12-15T05:44:06.464Z,51.93
2022-12-15T05:46:40.265Z,43.90
2022-12-15T05:49:14.916Z,40.27
2022-12-15T05:51:49.810Z,45.47
2022-12-15T05:54:22.569Z,42.10
2022-12-15T05:56:55.406Z,38.50
2022-12-15T05:59:29.438Z,43.53
2022-12-15T06:02:02.405Z,48.57
2022-12-15T06:04:35.147Z,41.87
2022-12-15T06:07:07.996Z,45.77
2022-12-15T06:09:46.636Z,50.10
2022-12-15T06:12:21.923Z,52.30
2022-12-15T06:14:56.296Z,46.60
2022-12-15T06:17:29.312Z,50.93
2022-12-15T06:20:02.272Z,46.33
2022-12-15T06:22:35.025Z,48.33
2022-12-15T06:25:09.859Z,48.73
2022-12-15T06:27:42.968Z,43.23
2022-12-15T06:30:19.133Z,44.87
2022-12-15T06:32:51.941Z,40.70
2022-12-15T06:35:24.864Z,46.20
2022-12-15T06:37:57.693Z,49.10
2022-12-15T06:40:37.670Z,45.17
2022-12-15T06:43:11.043Z,40.57
2022-12-15T06:45:51.786Z,45.20
2022-12-15T06:48:27.524Z,47.67
2022-12-15T06:51:03.618Z,46.27
2022-12-15T06:53:37.804Z,42.60
2022-12-15T06:56:18.312Z,47.03
2022-12-15T06:58:52.004Z,41.83
2022-12-15T07:01:26.885Z,44.17
2022-12-15T07:04:01.610Z,39.87
2022-12-15T07:06:36.753Z,39.43
2022-12-15T07:09:13.195Z,42.90
2022-12-15T07:11:49.209Z,42.57
2022-12-15T07:14:23.185Z,43.93
2022-12-15T07:16:59.897Z,45.00
2022-12-15T07:19:32.845Z,41.43
2022-12-15T07:22:05.754Z,37.73
2022-12-15T07:24:38.744Z,45.13
2022-12-15T07:27:11.468Z,44.50
2022-12-15T07:29:44.526Z,44.13
2022-12-15T07:32:19.283Z,38.50
2022-12-15T07:34:52.219Z,40.53
2022-12-15T07:37:24.878Z,45.60
2022-12-15T07:39:57.693Z,40.33
2022-12-15T07:42:30.732Z,38.83
2022-12-15T07:45:03.944Z,38.87
2022-12-15T07:47:38.044Z,40.30
2022-12-15T07:50:11.240Z,39.73
2022-12-15T07:52:44.468Z,39.37
2022-12-15T07:55:27.702Z,37.83
2022-12-15T07:58:10.408Z,37.07
2022-12-15T08:00:48.611Z,42.23
2022-12-15T08:03:27.032Z,40.00
2022-12-15T08:06:03.994Z,35.50
2022-12-15T08:08:37.285Z,37.97
2022-12-15T08:11:11.048Z,32.73
2022-12-15T08:16:38.820Z,30.37
2022-12-15T08:19:16.392Z,35.67
2022-12-15T08:21:50.912Z,36.13
2022-12-15T08:24:23.700Z,36.87
2022-12-15T08:27:05.819Z,37.20
2022-12-15T08:29:53.851Z,35.37
2022-12-15T08:32:26.953Z,33.50
2022-12-15T08:35:01.069Z,37.23
2022-12-15T08:37:35.118Z,37.83
2022-12-15T08:40:08.626Z,35.20
2022-12-15T08:42:41.536Z,34.53
2022-12-15T08:45:14.304Z,41.87
2022-12-15T08:47:47.093Z,36.47
2022-12-15T08:50:21.337Z,34.93
2022-12-15T08:53:21.305Z,35.83
2022-12-15T08:55:46.953Z,35.53
2022-12-15T08:58:19.852Z,40.33
2022-12-15T09:00:52.724Z,33.57
2022-12-15T09:03:25.674Z,34.23
2022-12-15T09:06:08.294Z,34.57
2022-12-15T09:08:41.272Z,38.60
2022-12-15T09:11:16.043Z,37.13
2022-12-15T09:13:48.724Z,42.03
2022-12-15T09:16:22.438Z,35.83
2022-12-15T09:18:56.155Z,35.10
2022-12-15T09:21:30.863Z,35.27
2022-12-15T09:24:07.067Z,37.83
2022-12-15T09:26:40.818Z,35.33
2022-12-15T09:29:14.436Z,38.57
2022-12-15T09:31:47.096Z,30.70
2022-12-15T09:34:19.891Z,32.97
2022-12-15T09:36:54.483Z,33.87
2022-12-15T09:39:27.469Z,34.73
2022-12-15T09:42:01.396Z,37.27
2022-12-15T09:44:34.410Z,35.93
2022-12-15T09:47:14.318Z,34.00
2022-12-15T09:49:52.487Z,36.73
2022-12-15T09:52:31.032Z,34.57
2022-12-15T09:55:04.461Z,34.67
2022-12-15T09:57:38.072Z,40.40
2022-12-15T10:00:16.090Z,35.57
2022-12-15T10:03:03.857Z,38.40
2022-12-15T10:06:07.421Z,38.20
2022-12-15T10:08:34.739Z,38.70
2022-12-15T10:11:17.476Z,37.77
2022-12-15T10:13:53.528Z,35.87
2022-12-15T10:16:31.817Z,41.37
2022-12-15T10:19:09.328Z,42.90
2022-12-15T10:21:42.669Z,37.77
2022-12-15T10:27:20.957Z,38.10
2022-12-15T10:29:57.082Z,34.00
2022-12-15T10:32:39.315Z,27.20
2022-12-15T10:35:17.256Z,31.97
2022-12-15T10:37:51.530Z,37.27
2022-12-15T10:40:50.581Z,41.30
2022-12-15T10:43:35.419Z,39.93
2022-12-15T10:46:14.519Z,38.67
2022-12-15T10:48:48.733Z,38.20
2022-12-15T10:51:30.741Z,37.37
2022-12-15T10:54:13.018Z,38.77
2022-12-15T10:56:50.348Z,36.13
2022-12-15T10:59:26.119Z,36.50
2022-12-15T11:02:23.805Z,33.63
2022-12-15T11:04:57.466Z,35.93
2022-12-15T11:07:34.192Z,35.43
2022-12-15T11:10:16.054Z,36.63
2022-12-15T11:13:02.511Z,31.93
2022-12-15T11:15:40.970Z,34.27
2022-12-15T11:18:22.759Z,41.03
2022-12-15T11:21:01.277Z,40.27
2022-12-15T11:23:39.833Z,47.17
2022-12-15T11:26:17.295Z,41.37
2022-12-15T11:28:53.876Z,37.13
2022-12-15T11:31:38.908Z,39.83
2022-12-15T11:34:13.561Z,38.60
2022-12-15T11:36:54.720Z,35.57
2022-12-15T11:39:35.695Z,35.33
2022-12-15T11:42:14.013Z,34.77
2022-12-15T11:44:56.678Z,39.43
2022-12-15T11:47:39.567Z,39.30
2022-12-15T11:50:22.057Z,32.13
2022-12-15T11:53:01.355Z,36.40
2022-12-15T11:55:41.649Z,33.97
2022-12-15T11:58:22.874Z,34.43
2022-12-15T12:01:01.034Z,33.87
2022-12-15T12:03:38.568Z,46.43
2022-12-15T12:06:13.373Z,41.33
2022-12-15T12:08:51.143Z,31.53
2022-12-15T12:11:28.381Z,41.77
2022-12-15T12:14:11.995Z,34.60
2022-12-15T12:16:48.669Z,34.10
2022-12-15T12:19:25.603Z,29.63
2022-12-15T12:22:04.898Z,30.83
2022-12-15T12:24:40.089Z,30.70
2022-12-15T12:27:19.977Z,33.17
2022-12-15T12:29:57.571Z,34.70
2022-12-15T12:32:34.939Z,35.17
2022-12-15T12:35:30.876Z,33.57
2022-12-15T12:38:09.440Z,26.30
2022-12-15T12:40:51.799Z,33.40
2022-12-15T12:43:31.830Z,31.07
2022-12-15T12:46:07.315Z,29.07
2022-12-15T12:48:42.220Z,34.73
2022-12-15T12:51:25.498Z,32.43
2022-12-15T12:53:58.824Z,41.63
2022-12-15T12:56:33.191Z,43.30
2022-12-15T12:59:08.886Z,40.50
2022-12-15T13:01:42.243Z,24.10
2022-12-15T13:04:35.398Z,31.17
2022-12-15T13:07:29.183Z,27.87
2022-12-15T13:10:14.773Z,29.43
2022-12-15T13:12:51.856Z,28.07
2022-12-15T13:15:33.385Z,26.80
2022-12-15T13:18:09.241Z,24.37
2022-12-15T13:20:42.848Z,24.80
2022-12-15T13:23:36.491Z,30.07
2022-12-15T13:26:13.540Z,28.70
2022-12-15T13:28:50.941Z,27.90
2022-12-15T13:31:35.499Z,29.93
2022-12-15T13:34:23.020Z,27.30
2022-12-15T13:37:00.323Z,35.90
2022-12-15T13:39:36.035Z,28.80
2022-12-15T13:42:37.383Z,31.50
2022-12-15T13:45:30.863Z,50.03
2022-12-15T13:48:09.036Z,39.03
2022-12-15T13:50:45.640Z,44.00
2022-12-15T13:53:26.714Z,28.80
2022-12-15T13:56:07.913Z,28.73
2022-12-15T13:58:43.146Z,36.23
2022-12-15T14:01:20.595Z,36.63
2022-12-15T14:04:03.262Z,38.33
2022-12-15T14:06:37.659Z,40.27
2022-12-15T14:09:14.285Z,41.53
2022-12-15T14:11:54.193Z,37.77
2022-12-15T14:14:30.056Z,38.00
2022-12-15T14:17:13.710Z,35.13
2022-12-15T14:19:50.931Z,38.17
2022-12-15T14:22:29.671Z,39.73
2022-12-15T14:25:04.529Z,37.90
2022-12-15T14:27:38.741Z,36.23
2022-12-15T14:30:13.072Z,37.93
2022-12-15T14:32:48.816Z,36.27
2022-12-15T14:35:25.870Z,36.67
2022-12-15T14:38:00.815Z,35.27
2022-12-15T14:40:37.194Z,34.37
2022-12-15T14:43:15.376Z,34.50
2022-12-15T14:45:52.135Z,46.37
2022-12-15T14:48:45.080Z,38.00
2022-12-15T14:51:20.374Z,35.67
2022-12-15T14:53:54.463Z,35.30
2022-12-15T14:56:31.179Z,41.27
2022-12-15T14:59:20.783Z,39.70
2022-12-15T15:01:58.772Z,37.47
2022-12-15T15:03:09.636Z,37.73
2022-12-15T15:04:32.917Z,35.97
2022-12-15T15:07:09.547Z,40.90
2022-12-15T15:09:42.966Z,36.37
2022-12-15T15:12:17.273Z,39.03
2022-12-15T15:14:57.017Z,33.63
2022-12-15T15:17:34.917Z,37.47
2022-12-15T15:20:09.412Z,40.20
2022-12-15T15:22:43.401Z,42.20
2022-12-15T15:25:27.355Z,38.57
2022-12-15T15:28:04.143Z,35.00
2022-12-15T15:30:43.857Z,39.60
2022-12-15T15:33:17.374Z,37.20
2022-12-15T15:35:51.756Z,44.83
2022-12-15T15:38:27.032Z,52.67
2022-12-15T15:41:01.239Z,37.87
2022-12-15T15:43:34.085Z,44.63
2022-12-15T15:46:11.919Z,39.97
2022-12-15T15:48:49.580Z,38.27
2022-12-15T15:51:22.563Z,38.07
2022-12-15T15:53:56.173Z,38.43
2022-12-15T15:56:31.135Z,39.40
2022-12-15T15:59:10.881Z,36.90
2022-12-15T16:01:46.515Z,39.87
2022-12-15T16:04:19.876Z,35.87
2022-12-15T16:06:53.431Z,36.67
2022-12-15T16:09:26.516Z,39.10
2022-12-15T16:11:59.842Z,36.90
2022-12-15T16:14:32.765Z,33.73
2022-12-15T16:17:09.553Z,34.73
2022-12-15T16:19:42.431Z,38.83
2022-12-15T16:22:17.916Z,49.13
2022-12-15T16:24:52.994Z,44.80
2022-12-15T16:27:26.416Z,42.27
2022-12-15T16:30:01.129Z,46.30
2022-12-15T16:32:35.984Z,45.80
2022-12-15T16:35:09.143Z,44.40
2022-12-15T16:37:46.476Z,38.67
2022-12-15T16:40:22.620Z,41.60
2022-12-15T16:42:56.325Z,41.87
2022-12-15T16:45:30.411Z,36.07
2022-12-15T16:48:05.241Z,37.30
2022-12-15T16:50:39.527Z,34.30
2022-12-15T16:53:18.743Z,37.93
2022-12-15T16:55:54.514Z,38.03
2022-12-15T16:58:31.812Z,43.67
2022-12-15T17:01:04.963Z,37.23
2022-12-15T17:03:39.402Z,40.57
2022-12-15T17:06:13.762Z,33.77
2022-12-15T17:08:48.848Z,37.70
2022-12-15T17:11:32.074Z,81.37
2022-12-15T17:14:05.416Z,42.67
2022-12-15T17:16:38.202Z,38.17
2022-12-15T17:19:16.314Z,38.83
2022-12-15T17:21:57.077Z,39.53
2022-12-15T17:24:30.054Z,41.13
2022-12-15T17:27:03.270Z,49.73
2022-12-15T17:29:36.204Z,52.37
2022-12-15T17:32:12.337Z,46.20
2022-12-15T17:34:46.851Z,38.97
2022-12-15T17:37:19.785Z,36.40
2022-12-15T17:39:53.933Z,39.80
2022-12-15T17:42:27.241Z,38.23
2022-12-15T17:45:00.494Z,48.40
2022-12-15T17:47:33.756Z,50.97
2022-12-15T17:50:08.757Z,44.43
2022-12-15T17:52:42.359Z,36.03
2022-12-15T17:55:20.063Z,43.97
2022-12-15T17:57:55.303Z,41.27
2022-12-15T18:00:29.259Z,36.77
2022-12-15T18:03:02.916Z,53.37
2022-12-15T18:05:37.443Z,56.97
2022-12-15T18:08:13.730Z,39.57
2022-12-15T18:10:47.626Z,35.40
2022-12-15T18:13:21.559Z,38.40
2022-12-15T18:15:55.751Z,38.13
2022-12-15T18:18:28.749Z,41.97
2022-12-15T18:21:03.475Z,42.50
2022-12-15T18:23:37.461Z,36.87
2022-12-15T18:26:12.782Z,42.23
2022-12-15T18:28:45.903Z,39.93
2022-12-15T18:31:25.826Z,45.43
2022-12-15T18:34:04.721Z,49.20
2022-12-15T18:36:39.879Z,41.13
2022-12-15T18:39:17.259Z,44.50
2022-12-15T18:41:50.800Z,38.83
2022-12-15T18:44:28.289Z,39.60
2022-12-15T18:47:01.276Z,39.17
2022-12-15T18:49:33.956Z,42.00
2022-12-15T18:52:11.766Z,42.67
2022-12-15T18:54:44.920Z,46.73
2022-12-15T18:57:30.681Z,49.60
2022-12-15T19:00:16.936Z,44.17
2022-12-15T19:02:50.006Z,61.97
2022-12-15T19:05:29.629Z,46.93
2022-12-15T19:08:09.954Z,47.50
2022-12-15T19:10:48.240Z,34.87
2022-12-15T19:13:21.967Z,35.60
2022-12-15T19:15:56.701Z,45.07
2022-12-15T19:18:47.240Z,38.43
2022-12-15T19:21:38.398Z,36.03
2022-12-15T19:24:14.254Z,37.40
2022-12-15T19:26:47.094Z,35.07
2022-12-15T19:29:21.322Z,36.27
2022-12-15T19:31:55.039Z,37.70
2022-12-15T19:34:28.232Z,37.93
2022-12-15T19:37:01.545Z,41.90
2022-12-15T19:39:37.054Z,35.00
2022-12-15T19:42:13.609Z,34.93
2022-12-15T19:44:46.411Z,34.83
2022-12-15T19:47:19.437Z,43.13
2022-12-15T19:49:52.882Z,35.27
2022-12-15T19:52:28.429Z,35.67
2022-12-15T19:55:02.727Z,42.83
2022-12-15T19:57:35.520Z,36.67
2022-12-15T20:00:15.480Z,43.40
2022-12-15T20:02:51.256Z,33.13
2022-12-15T20:05:25.285Z,35.63
2022-12-15T20:07:58.213Z,35.33
2022-12-15T20:10:32.933Z,42.20
2022-12-15T20:13:07.579Z,34.90
2022-12-15T20:15:40.555Z,40.17
2022-12-15T20:18:16.681Z,39.23
2022-12-15T20:20:50.868Z,36.03
2022-12-15T20:23:26.881Z,35.67
2022-12-15T20:26:03.506Z,39.37
2022-12-15T20:28:36.436Z,49.80
2022-12-15T20:31:13.667Z,39.23
2022-12-15T20:33:47.168Z,60.00
2022-12-15T20:36:21.073Z,47.33
2022-12-15T20:38:54.540Z,47.33
2022-12-15T20:41:30.376Z,46.40
2022-12-15T20:44:03.758Z,47.50
2022-12-15T20:46:41.562Z,42.73
2022-12-15T20:49:16.206Z,38.67
2022-12-15T20:51:50.649Z,40.27
2022-12-15T20:54:23.682Z,38.17
2022-12-15T20:56:57.805Z,51.07
2022-12-15T20:59:33.004Z,47.00
2022-12-15T21:02:14.979Z,46.63
2022-12-15T21:04:48.288Z,39.20
2022-12-15T21:07:21.326Z,50.27
2022-12-15T21:09:54.276Z,40.37
2022-12-15T21:12:29.292Z,39.57
2022-12-15T21:15:02.158Z,41.43
2022-12-15T21:17:38.696Z,37.53
2022-12-15T21:20:14.649Z,37.73
2022-12-15T21:22:47.495Z,36.07
2022-12-15T21:25:29.079Z,35.33
2022-12-15T21:28:03.673Z,37.47
2022-12-15T21:30:40.612Z,35.50
2022-12-15T21:33:13.465Z,62.20
2022-12-15T21:35:47.149Z,39.97
2022-12-15T21:38:29.931Z,48.53
2022-12-15T21:41:04.091Z,42.07
2022-12-15T21:43:38.560Z,42.77
2022-12-15T21:46:14.323Z,41.17
2022-12-15T21:49:05.047Z,43.87
2022-12-15T21:51:38.750Z,46.13
2022-12-15T21:54:16.696Z,40.87
2022-12-15T21:56:50.025Z,37.07
2022-12-15T21:59:28.124Z,40.30
2022-12-15T22:02:01.442Z,41.70
2022-12-15T22:04:35.270Z,38.20
2022-12-15T22:07:11.427Z,40.93
2022-12-15T22:09:44.327Z,39.77
2022-12-15T22:12:19.614Z,40.03
2022-12-15T22:14:53.976Z,38.53
2022-12-15T22:17:26.657Z,39.93
2022-12-15T22:19:59.634Z,40.40
2022-12-15T22:22:32.733Z,38.80
2022-12-15T22:25:06.239Z,40.37
2022-12-15T22:27:39.128Z,37.47
2022-12-15T22:30:17.151Z,41.97
2022-12-15T22:32:50.817Z,39.93
2022-12-15T22:35:26.211Z,41.40
2022-12-15T22:38:00.070Z,37.63
2022-12-15T22:40:36.256Z,41.97
2022-12-15T22:43:17.832Z,47.00
2022-12-15T22:45:54.434Z,39.30
2022-12-15T22:48:31.399Z,40.13
2022-12-15T22:51:06.166Z,41.27
2022-12-15T22:53:39.208Z,48.20
2022-12-15T22:56:18.493Z,44.50
2022-12-15T22:58:52.339Z,44.50
2022-12-15T23:01:27.970Z,46.80
2022-12-15T23:04:03.185Z,47.37
2022-12-15T23:06:36.027Z,47.27
2022-12-15T23:09:08.871Z,43.17
2022-12-15T23:11:44.027Z,47.90
2022-12-15T23:14:18.326Z,47.10
2022-12-15T23:16:52.058Z,47.60
2022-12-15T23:19:26.761Z,46.17
2022-12-15T23:22:02.904Z,44.00
2022-12-15T23:24:39.320Z,45.07
2022-12-15T23:27:13.762Z,44.80
2022-12-15T23:29:47.138Z,45.07
2022-12-15T23:32:21.836Z,48.27
2022-12-15T23:34:55.336Z,49.10
2022-12-15T23:37:28.786Z,50.80
2022-12-15T23:40:01.943Z,48.43
2022-12-15T23:42:40.290Z,44.87
2022-12-15T23:45:14.692Z,49.77
2022-12-15T23:47:49.800Z,49.60
2022-12-15T23:50:25.396Z,52.20
2022-12-15T23:53:04.139Z,50.47
2022-12-15T23:55:38.225Z,50.93
2022-12-15T23:58:11.756Z,47.37
